NATIONAL KEY DEER NWR FL US current weather conditions

sailwx.info

Wind from 137 at 4 knots gusting 9

Air temperature 25.6° C
Dewpoint 23.0° C

Last reported at 2017-Apr-27 03:38 UTC.
Time now 2017-Apr-27 05:06 UTC

Location: N 24°43' W 081°23'.
View on Google Maps.

See reports from other nearby stations

  
Tides and Currents Weather Stations Pressure Air Temp Water Temp Dewpoint Dewpoint Depression Visibility Wind Speed Wind Dir Waves Ship Positions
date/time (UTC)wind fromknots sea level pressurealtimeterstation pressurevisibilityair tempwater tempwave heightnotes
2017-Apr-27 03:38 137 4 gusting 9 25.6
2017-Apr-27 02:38 127 3 gusting 8 25.6
2017-Apr-27 01:38 122 3 gusting 8 25.6
2017-Apr-27 00:38 116 2 gusting 7 25.6
2017-Apr-26 23:38 114 2 gusting 8 26.7
2017-Apr-26 22:38 096 3 gusting 8 28.3
2017-Apr-26 21:38 082 4 gusting 9 28.3
2017-Apr-26 20:38 129 4 gusting 8 28.3
2017-Apr-26 19:38 084 4 gusting 11 28.3
2017-Apr-26 18:38 089 5 gusting 10 28.9
2017-Apr-26 17:38 102 5 gusting 10 30.0
2017-Apr-26 16:38 086 5 gusting 10 28.9
2017-Apr-26 15:38 141 4 gusting 10 30.0
2017-Apr-26 14:38 101 5 gusting 10 28.9
2017-Apr-26 13:38 100 4 gusting 8 27.8
2017-Apr-26 12:38 109 3 gusting 6 26.1
2017-Apr-26 11:38 121 0 gusting 2 21.1
2017-Apr-26 10:38 18.3
2017-Apr-26 09:38 18.9
2017-Apr-26 08:38 17.2
2017-Apr-26 07:38 17.2
2017-Apr-26 06:38 17.8
2017-Apr-26 05:38 17.8
2017-Apr-26 04:38 18.3
2017-Apr-26 03:38 18.3
2017-Apr-26 02:38 18.9
2017-Apr-26 01:38 20.0
2017-Apr-26 00:38 21.7
2017-Apr-25 23:38 302 3 gusting 8 24.4
2017-Apr-25 22:38 292 4 gusting 10 26.7
2017-Apr-25 21:38 295 5 gusting 10 27.8
2017-Apr-25 20:38 294 5 gusting 10 28.3
2017-Apr-25 19:38 294 5 gusting 11 28.3
2017-Apr-25 18:38 300 5 gusting 10 27.8
2017-Apr-25 17:38 295 4 gusting 8 28.3
2017-Apr-25 16:38 305 4 gusting 9 27.8
2017-Apr-25 15:38 271 5 gusting 12 27.8
2017-Apr-25 14:38 298 6 gusting 11 27.2
2017-Apr-25 13:38 281 6 gusting 9 26.1
2017-Apr-25 12:38 281 4 gusting 11 25.0
2017-Apr-25 11:38 286 4 gusting 8 22.8
2017-Apr-25 10:38 287 3 gusting 7 21.7
2017-Apr-25 09:38 304 3 gusting 7 21.7
2017-Apr-25 08:38 317 2 gusting 6 21.1
2017-Apr-25 07:38 309 4 gusting 6 21.7
2017-Apr-25 06:38 317 4 gusting 13 22.2
2017-Apr-25 05:38 282 6 gusting 11 22.8